createdAt,value
2022-10-01T00:02:11.451Z,38.90
2022-10-01T00:04:43.537Z,35.08
2022-10-01T00:07:15.580Z,32.83
2022-10-01T00:09:44.847Z,28.15
2022-10-01T00:12:16.184Z,27.05
2022-10-01T00:14:45.237Z,31.52
2022-10-01T00:17:14.831Z,32.65
2022-10-01T00:19:44.975Z,27.92
2022-10-01T00:22:13.773Z,30.02
2022-10-01T00:24:45.612Z,26.50
2022-10-01T00:27:15.402Z,27.25
2022-10-01T00:29:51.098Z,25.95
2022-10-01T00:34:49.203Z,32.92
2022-10-01T00:37:24.878Z,41.65
2022-10-01T00:39:54.136Z,38.72
2022-10-01T00:42:27.873Z,32.42
2022-10-01T00:45:05.369Z,33.85
2022-10-01T00:47:44.918Z,33.90
2022-10-01T00:50:24.530Z,32.53
2022-10-01T00:52:55.098Z,31.75
2022-10-01T00:55:30.932Z,28.30
2022-10-01T00:58:04.254Z,34.08
2022-10-01T01:00:36.675Z,37.13
2022-10-01T01:03:06.611Z,32.42
2022-10-01T01:05:36.144Z,31.85
2022-10-01T01:08:05.521Z,31.63
2022-10-01T01:10:53.509Z,31.73
2022-10-01T01:13:22.460Z,31.02
2022-10-01T01:16:09.746Z,25.65
2022-10-01T01:18:51.109Z,26.70
2022-10-01T01:21:26.198Z,30.75
2022-10-01T01:24:01.058Z,37.05
2022-10-01T01:26:32.556Z,28.02
2022-10-01T01:29:11.993Z,27.67
2022-10-01T01:31:46.772Z,35.20
2022-10-01T01:34:25.091Z,29.23
2022-10-01T01:36:59.097Z,30.33
2022-10-01T01:39:29.537Z,28.05
2022-10-01T01:42:01.494Z,30.77
2022-10-01T01:44:34.997Z,29.05
2022-10-01T01:47:10.708Z,29.63
2022-10-01T01:49:44.209Z,29.63
2022-10-01T01:52:15.883Z,29.13
2022-10-01T01:54:50.762Z,31.15
2022-10-01T01:57:20.882Z,30.05
2022-10-01T01:59:52.370Z,29.92
2022-10-01T02:02:33.689Z,30.42
2022-10-01T02:05:06.055Z,29.85
2022-10-01T02:07:44.624Z,30.67
2022-10-01T02:10:25.192Z,34.90
2022-10-01T02:13:12.876Z,30.75
2022-10-01T02:15:59.920Z,30.92
2022-10-01T02:18:37.901Z,34.00
2022-10-01T02:21:15.339Z,32.30
2022-10-01T02:23:46.728Z,32.67
2022-10-01T02:26:20.043Z,35.53
2022-10-01T02:28:52.053Z,36.38
2022-10-01T02:31:39.162Z,34.25
2022-10-01T02:34:12.645Z,34.08
2022-10-01T02:36:43.472Z,36.88
2022-10-01T02:39:14.447Z,36.38
2022-10-01T02:41:46.047Z,35.35
2022-10-01T02:44:21.645Z,36.35
2022-10-01T02:46:53.248Z,40.42
2022-10-01T02:49:22.346Z,40.70
2022-10-01T02:52:10.123Z,37.63
2022-10-01T02:54:43.785Z,39.20
2022-10-01T02:57:27.443Z,39.95
2022-10-01T03:00:04.494Z,37.17
2022-10-01T03:02:40.221Z,37.10
2022-10-01T03:05:11.371Z,35.58
2022-10-01T03:07:41.956Z,36.78
2022-10-01T03:10:11.506Z,38.20
2022-10-01T03:12:45.668Z,36.33
2022-10-01T03:15:19.416Z,35.88
2022-10-01T03:17:59.946Z,34.53
2022-10-01T03:20:35.136Z,34.42
2022-10-01T03:23:04.055Z,35.80
2022-10-01T03:25:32.362Z,34.25
2022-10-01T03:28:02.785Z,32.65
2022-10-01T03:30:34.510Z,32.90
2022-10-01T03:33:04.119Z,30.83
2022-10-01T03:35:33.968Z,32.17
2022-10-01T03:38:03.001Z,31.80
2022-10-01T03:40:33.863Z,32.38
2022-10-01T03:43:07.380Z,31.70
2022-10-01T03:45:36.598Z,31.08
2022-10-01T03:48:06.630Z,33.30
2022-10-01T03:50:36.681Z,31.13
2022-10-01T03:53:09.278Z,28.85
2022-10-01T03:55:38.274Z,31.40
2022-10-01T03:58:07.133Z,30.25
2022-10-01T04:00:35.933Z,29.83
2022-10-01T04:03:05.491Z,29.80
2022-10-01T04:05:35.934Z,29.58
2022-10-01T04:08:04.422Z,33.78
2022-10-01T04:10:39.008Z,31.48
2022-10-01T04:13:08.684Z,30.30
2022-10-01T04:15:37.529Z,27.58
2022-10-01T04:18:09.830Z,26.85
2022-10-01T04:20:39.243Z,26.60
2022-10-01T04:23:09.032Z,28.60
2022-10-01T04:25:38.707Z,28.83
2022-10-01T04:28:07.976Z,29.67
2022-10-01T04:30:38.284Z,29.05
2022-10-01T04:33:07.393Z,28.45
2022-10-01T04:35:37.283Z,36.47
2022-10-01T04:38:09.011Z,46.70
2022-10-01T04:40:44.445Z,37.13
2022-10-01T04:43:13.710Z,33.25
2022-10-01T04:45:44.573Z,32.17
2022-10-01T04:48:15.388Z,33.22
2022-10-01T04:50:43.771Z,46.05
2022-10-01T04:53:14.453Z,39.13
2022-10-01T04:55:43.849Z,48.67
2022-10-01T04:58:13.498Z,44.92
2022-10-01T05:00:45.024Z,101.82
2022-10-01T05:03:15.732Z,95.93
2022-10-01T05:05:45.783Z,88.50
2022-10-01T05:08:15.147Z,59.40
2022-10-01T05:10:44.685Z,45.00
2022-10-01T05:13:14.944Z,41.08
2022-10-01T05:15:44.915Z,34.78
2022-10-01T05:18:16.020Z,30.58
2022-10-01T05:20:46.320Z,32.63
2022-10-01T05:23:15.781Z,33.92
2022-10-01T05:25:47.491Z,33.95
2022-10-01T05:28:22.663Z,40.00
2022-10-01T05:30:53.131Z,44.95
2022-10-01T05:33:21.997Z,90.15
2022-10-01T05:35:52.162Z,39.72
2022-10-01T05:38:22.372Z,35.30
2022-10-01T05:40:53.986Z,36.63
2022-10-01T05:43:32.917Z,26.63
2022-10-01T05:46:10.632Z,26.05
2022-10-01T05:48:39.700Z,34.10
2022-10-01T05:51:08.511Z,32.20
2022-10-01T05:53:50.432Z,51.40
2022-10-01T05:56:21.540Z,38.20
2022-10-01T05:58:51.825Z,26.90
2022-10-01T06:01:22.417Z,19.42
2022-10-01T06:03:54.065Z,16.73
2022-10-01T06:06:24.377Z,15.80
2022-10-01T06:08:59.540Z,14.93
2022-10-01T06:11:31.121Z,15.45
2022-10-01T06:14:01.097Z,33.60
2022-10-01T06:16:33.364Z,20.63
2022-10-01T06:19:09.399Z,14.93
2022-10-01T06:21:47.733Z,11.48
2022-10-01T06:24:22.331Z,14.68
2022-10-01T06:29:36.113Z,12.93
2022-10-01T06:32:23.955Z,14.30
2022-10-01T06:35:03.952Z,9.88
2022-10-01T06:37:43.842Z,10.77
2022-10-01T06:40:16.386Z,9.05
2022-10-01T06:42:56.572Z,10.70
2022-10-01T06:45:28.262Z,11.32
2022-10-01T06:48:06.157Z,12.95
2022-10-01T06:50:37.454Z,12.63
2022-10-01T06:53:07.109Z,8.65
2022-10-01T06:55:38.262Z,10.70
2022-10-01T06:58:11.016Z,12.40
2022-10-01T07:00:42.595Z,9.93
2022-10-01T07:03:21.979Z,21.15
2022-10-01T07:05:53.813Z,9.40
2022-10-01T07:08:24.217Z,8.73
2022-10-01T07:10:54.062Z,8.65
2022-10-01T07:13:23.826Z,12.93
2022-10-01T07:15:53.550Z,9.73
2022-10-01T07:18:31.712Z,10.30
2022-10-01T07:21:10.723Z,7.38
2022-10-01T07:23:40.949Z,17.85
2022-10-01T07:26:12.265Z,8.60
2022-10-01T07:28:43.520Z,7.10
2022-10-01T07:31:12.665Z,8.93
2022-10-01T07:33:43.025Z,11.35
2022-10-01T07:36:19.979Z,9.13
2022-10-01T07:38:50.999Z,9.93
2022-10-01T07:41:26.140Z,8.48
2022-10-01T07:43:59.292Z,9.02
2022-10-01T07:46:31.485Z,12.93
2022-10-01T07:51:35.826Z,9.02
2022-10-01T07:54:05.973Z,11.48
2022-10-01T07:56:43.475Z,8.07
2022-10-01T07:59:12.392Z,8.13
2022-10-01T08:01:41.426Z,7.90
2022-10-01T08:04:28.543Z,6.70
2022-10-01T08:06:57.835Z,7.03
2022-10-01T08:09:27.038Z,8.85
2022-10-01T08:12:07.779Z,8.38
2022-10-01T08:14:36.992Z,8.45
2022-10-01T08:17:07.460Z,11.25
2022-10-01T08:19:38.742Z,9.75
2022-10-01T08:22:08.463Z,8.50
2022-10-01T08:24:37.279Z,9.00
2022-10-01T08:27:08.651Z,9.10
2022-10-01T08:29:39.859Z,8.65
2022-10-01T08:32:31.324Z,9.52
2022-10-01T08:35:01.811Z,8.85
2022-10-01T08:37:32.057Z,9.77
2022-10-01T08:40:02.793Z,10.80
2022-10-01T08:43:00.938Z,9.13
2022-10-01T08:45:53.724Z,8.27
2022-10-01T08:48:41.002Z,10.45
2022-10-01T08:51:32.953Z,8.43
2022-10-01T08:54:28.659Z,9.07
2022-10-01T08:57:05.616Z,9.48
2022-10-01T08:59:48.859Z,7.30
2022-10-01T09:05:35.716Z,8.35
2022-10-01T09:08:25.019Z,8.25
2022-10-01T09:11:07.262Z,10.57
2022-10-01T09:14:14.575Z,7.93
2022-10-01T09:17:29.626Z,6.60
2022-10-01T09:20:15.505Z,7.75
2022-10-01T09:26:11.575Z,7.28
2022-10-01T09:28:41.928Z,7.35
2022-10-01T09:31:25.463Z,8.25
2022-10-01T09:34:13.201Z,8.63
2022-10-01T09:36:51.602Z,8.10
2022-10-01T09:39:29.937Z,11.55
2022-10-01T09:44:47.741Z,10.02
2022-10-01T09:47:21.686Z,9.77
2022-10-01T09:49:53.750Z,8.88
2022-10-01T09:52:34.323Z,9.30
2022-10-01T09:55:21.411Z,10.15
2022-10-01T09:58:18.667Z,7.97
2022-10-01T10:00:51.744Z,7.70
2022-10-01T10:03:32.108Z,7.10
2022-10-01T10:06:30.466Z,7.07
2022-10-01T10:09:03.588Z,7.95
2022-10-01T10:11:33.667Z,7.78
2022-10-01T10:14:07.368Z,7.55
2022-10-01T10:16:49.138Z,7.45
2022-10-01T10:19:30.016Z,7.28
2022-10-01T10:25:25.037Z,8.43
2022-10-01T10:27:59.608Z,9.50
2022-10-01T10:30:28.713Z,7.68
2022-10-01T10:33:08.619Z,7.80
2022-10-01T10:35:47.830Z,7.93
2022-10-01T10:41:31.129Z,7.68
2022-10-01T10:44:14.810Z,7.70
2022-10-01T10:46:48.905Z,8.07
2022-10-01T10:49:31.442Z,7.75
2022-10-01T10:52:02.186Z,6.90
2022-10-01T10:57:41.610Z,7.90
2022-10-01T11:03:31.489Z,8.30
2022-10-01T11:06:11.637Z,7.22
2022-10-01T11:08:42.107Z,8.50
2022-10-01T11:11:37.711Z,7.40
2022-10-01T11:14:28.369Z,7.32
2022-10-01T11:17:06.874Z,19.02
2022-10-01T11:20:05.367Z,12.20
2022-10-01T11:22:55.008Z,11.38
2022-10-01T11:25:32.602Z,14.30
2022-10-01T11:28:06.798Z,7.68
2022-10-01T11:30:45.471Z,6.78
2022-10-01T11:33:51.749Z,7.05
2022-10-01T11:36:52.027Z,6.90
2022-10-01T11:39:28.901Z,6.95
2022-10-01T11:42:17.804Z,7.57
2022-10-01T11:44:51.549Z,8.07
2022-10-01T11:47:23.551Z,8.15
2022-10-01T11:50:10.607Z,8.52
2022-10-01T11:52:47.572Z,9.07
2022-10-01T11:55:40.110Z,8.75
2022-10-01T11:58:30.520Z,9.07
2022-10-01T12:01:20.720Z,8.18
2022-10-01T12:03:54.410Z,8.15
2022-10-01T12:06:43.690Z,7.90
2022-10-01T12:09:20.660Z,8.90
2022-10-01T12:14:25.718Z,11.05
2022-10-01T12:17:15.353Z,12.77
2022-10-01T12:19:47.232Z,18.75
2022-10-01T12:22:24.580Z,20.40
2022-10-01T12:24:56.681Z,24.42
2022-10-01T12:27:46.576Z,10.45
2022-10-01T12:30:22.029Z,11.38
2022-10-01T12:33:05.032Z,9.55
2022-10-01T12:35:40.907Z,9.10
2022-10-01T12:38:12.882Z,20.00
2022-10-01T12:41:00.978Z,10.77
2022-10-01T12:43:37.937Z,15.20
2022-10-01T12:46:36.237Z,10.40
2022-10-01T12:49:22.530Z,13.00
2022-10-01T12:51:58.847Z,13.13
2022-10-01T12:54:44.054Z,19.13
2022-10-01T12:57:14.406Z,10.15
2022-10-01T12:59:59.448Z,9.90
2022-10-01T13:02:43.459Z,9.82
2022-10-01T13:05:32.628Z,9.57
2022-10-01T13:08:17.125Z,8.48
2022-10-01T13:11:21.415Z,10.02
2022-10-01T13:14:01.756Z,8.60
2022-10-01T13:16:32.215Z,7.22
2022-10-01T13:19:06.961Z,9.23
2022-10-01T13:21:55.067Z,7.57
2022-10-01T13:24:27.235Z,7.35
2022-10-01T13:27:03.472Z,8.55
2022-10-01T13:29:41.459Z,8.90
2022-10-01T13:32:29.029Z,10.20
2022-10-01T13:34:59.265Z,14.15
2022-10-01T13:37:36.558Z,10.15
2022-10-01T13:40:10.379Z,9.60
2022-10-01T13:42:47.840Z,15.65
2022-10-01T13:45:23.916Z,9.95
2022-10-01T13:47:52.785Z,10.70
2022-10-01T13:50:26.368Z,11.63
2022-10-01T13:56:13.040Z,9.70
2022-10-01T13:58:48.138Z,10.57
2022-10-01T14:01:23.857Z,12.68
2022-10-01T14:04:13.592Z,6.80
2022-10-01T14:06:47.344Z,10.75
2022-10-01T14:12:43.693Z,6.90
2022-10-01T14:15:53.212Z,8.23
2022-10-01T14:18:45.743Z,9.23
2022-10-01T14:21:22.555Z,7.55
2022-10-01T14:33:48.420Z,16.80
2022-10-01T14:36:28.952Z,13.43
2022-10-01T14:39:15.020Z,7.38
2022-10-01T14:41:50.179Z,10.70
2022-10-01T14:44:25.464Z,14.70
2022-10-01T14:46:58.305Z,10.63
2022-10-01T14:49:30.460Z,6.65
2022-10-01T14:52:07.420Z,10.55
2022-10-01T14:55:14.460Z,10.98
2022-10-01T14:57:56.862Z,11.63
2022-10-01T15:00:33.849Z,10.02
2022-10-01T15:05:39.999Z,25.40
2022-10-01T15:08:26.708Z,17.88
2022-10-01T15:11:08.595Z,25.63
2022-10-01T15:13:44.457Z,58.15
2022-10-01T15:16:23.288Z,15.45
2022-10-01T15:18:57.459Z,11.48
2022-10-01T15:21:30.439Z,13.77
2022-10-01T15:24:04.062Z,12.82
2022-10-01T15:26:33.786Z,14.82
2022-10-01T15:29:22.526Z,11.88
2022-10-01T15:32:16.370Z,16.88
2022-10-01T15:35:01.457Z,25.90
2022-10-01T15:37:36.631Z,15.23
2022-10-01T15:40:11.826Z,14.18
2022-10-01T15:42:46.984Z,9.63
2022-10-01T15:45:27.689Z,11.20
2022-10-01T15:48:00.165Z,18.00
2022-10-01T15:53:42.558Z,14.40
2022-10-01T15:56:15.821Z,53.92
2022-10-01T15:58:53.651Z,64.78
2022-10-01T16:01:30.160Z,181.40
2022-10-01T16:04:04.079Z,75.65
2022-10-01T16:06:37.062Z,60.30
2022-10-01T16:09:20.782Z,26.95
2022-10-01T16:11:57.617Z,25.58
2022-10-01T16:14:32.191Z,33.17
2022-10-01T16:17:17.625Z,24.35
2022-10-01T16:19:59.832Z,29.70
2022-10-01T16:22:30.599Z,23.30
2022-10-01T16:25:04.242Z,56.20
2022-10-01T16:27:47.613Z,31.27
2022-10-01T16:30:34.865Z,26.92
2022-10-01T16:33:40.236Z,23.42
2022-10-01T16:36:13.258Z,45.35
2022-10-01T16:38:43.169Z,20.40
2022-10-01T16:41:11.726Z,28.00
2022-10-01T16:43:40.444Z,50.13
2022-10-01T16:46:10.620Z,33.90
2022-10-01T16:48:41.320Z,29.08
2022-10-01T16:51:17.291Z,30.25
2022-10-01T16:53:46.453Z,68.30
2022-10-01T16:56:15.883Z,35.22
2022-10-01T16:58:45.211Z,23.83
2022-10-01T17:01:15.205Z,20.67
2022-10-01T17:03:45.556Z,21.63
2022-10-01T17:06:15.844Z,23.95
2022-10-01T17:08:44.254Z,29.50
2022-10-01T17:11:16.118Z,24.13
2022-10-01T17:13:47.582Z,24.75
2022-10-01T17:16:24.758Z,33.08
2022-10-01T17:18:55.848Z,52.55
2022-10-01T17:21:39.910Z,25.52
2022-10-01T17:27:11.589Z,24.08
2022-10-01T17:32:19.822Z,18.67
2022-10-01T17:34:50.896Z,20.45
2022-10-01T17:37:22.557Z,12.60
2022-10-01T17:39:58.292Z,46.60
2022-10-01T17:42:28.326Z,18.42
2022-10-01T17:47:49.085Z,18.23
2022-10-01T17:50:42.405Z,19.27
2022-10-01T17:53:16.690Z,29.50
2022-10-01T17:56:06.765Z,19.05
2022-10-01T17:58:47.167Z,20.27
2022-10-01T18:01:24.724Z,23.88
2022-10-01T18:04:01.400Z,22.08
2022-10-01T18:06:32.942Z,19.58
2022-10-01T18:09:03.127Z,19.38
2022-10-01T18:11:40.103Z,19.50
2022-10-01T18:14:21.834Z,18.95
2022-10-01T18:16:58.945Z,25.80
2022-10-01T18:19:54.495Z,36.50
2022-10-01T18:22:24.933Z,30.08
2022-10-01T18:24:54.513Z,18.38
2022-10-01T18:27:27.781Z,15.43
2022-10-01T18:29:56.401Z,17.27
2022-10-01T18:32:28.422Z,16.83
2022-10-01T18:35:08.905Z,33.10
2022-10-01T18:37:45.684Z,30.85
2022-10-01T18:40:41.228Z,23.05
2022-10-01T18:43:15.151Z,33.20
2022-10-01T18:46:02.217Z,24.17
2022-10-01T18:48:46.410Z,35.92
2022-10-01T18:51:15.393Z,36.00
2022-10-01T18:53:51.910Z,25.25
2022-10-01T18:56:32.831Z,17.38
2022-10-01T18:59:21.362Z,19.25
2022-10-01T19:01:54.982Z,21.00
2022-10-01T19:04:41.065Z,29.42
2022-10-01T19:07:22.799Z,27.52
2022-10-01T19:10:21.585Z,21.70
2022-10-01T19:12:50.642Z,19.85
2022-10-01T19:15:25.580Z,17.65
2022-10-01T19:18:08.376Z,22.70
2022-10-01T19:20:45.122Z,19.13
2022-10-01T19:23:26.397Z,22.05
2022-10-01T19:26:15.110Z,113.40
2022-10-01T19:29:07.604Z,271.05
2022-10-01T19:31:55.294Z,36.10
2022-10-01T19:34:36.578Z,22.75
2022-10-01T19:37:14.187Z,28.67
2022-10-01T19:39:44.205Z,18.02
2022-10-01T19:42:27.929Z,17.27
2022-10-01T19:45:16.783Z,28.65
2022-10-01T19:47:55.100Z,13.25
2022-10-01T19:50:32.795Z,45.58
2022-10-01T19:53:03.384Z,73.82
2022-10-01T19:55:38.566Z,81.03
2022-10-01T19:58:21.393Z,198.40
2022-10-01T20:00:54.492Z,112.60
2022-10-01T20:03:40.635Z,85.03
2022-10-01T20:06:21.713Z,44.83
2022-10-01T20:08:55.939Z,11.85
2022-10-01T20:11:46.361Z,12.55
2022-10-01T20:14:59.827Z,20.48
2022-10-01T20:17:31.131Z,15.20
2022-10-01T20:20:09.444Z,14.75
2022-10-01T20:22:44.819Z,22.58
2022-10-01T20:25:30.362Z,18.38
2022-10-01T20:28:01.008Z,39.00
2022-10-01T20:30:31.183Z,16.95
2022-10-01T20:33:01.168Z,21.05
2022-10-01T20:35:48.417Z,38.10
2022-10-01T20:38:23.918Z,31.23
2022-10-01T20:40:59.694Z,22.38
2022-10-01T20:46:15.576Z,15.00
2022-10-01T20:48:49.506Z,10.98
2022-10-01T20:51:42.962Z,9.18
2022-10-01T20:54:24.928Z,13.68
2022-10-01T20:57:02.284Z,11.18
2022-10-01T20:59:33.914Z,11.20
2022-10-01T21:02:04.068Z,9.40
2022-10-01T21:04:37.667Z,85.35
2022-10-01T21:07:15.386Z,58.30
2022-10-01T21:09:48.283Z,13.88
2022-10-01T21:12:53.787Z,7.45
2022-10-01T21:15:24.933Z,9.85
2022-10-01T21:18:13.318Z,9.68
2022-10-01T21:20:48.364Z,7.70
2022-10-01T21:23:20.440Z,7.85
2022-10-01T21:26:13.929Z,9.27
2022-10-01T21:29:04.605Z,11.23
2022-10-01T21:31:47.610Z,11.98
2022-10-01T21:34:36.792Z,12.40
2022-10-01T21:37:14.166Z,11.27
2022-10-01T21:39:43.707Z,11.57
2022-10-01T21:42:16.285Z,9.05
2022-10-01T21:45:22.466Z,9.63
2022-10-01T21:47:59.162Z,20.58
2022-10-01T21:50:38.612Z,32.22
2022-10-01T21:53:16.253Z,73.00
2022-10-01T21:55:51.667Z,28.80
2022-10-01T21:58:34.780Z,32.38
2022-10-01T22:01:15.855Z,10.60
2022-10-01T22:03:48.161Z,10.45
2022-10-01T22:06:47.198Z,9.57
2022-10-01T22:09:35.885Z,9.82
2022-10-01T22:12:06.862Z,8.70
2022-10-01T22:14:35.978Z,10.57
2022-10-01T22:17:27.891Z,10.70
2022-10-01T22:19:58.569Z,9.55
2022-10-01T22:22:29.147Z,11.40
2022-10-01T22:25:09.648Z,9.52
2022-10-01T22:27:46.946Z,9.57
2022-10-01T22:30:21.927Z,14.82
2022-10-01T22:33:11.241Z,12.90
2022-10-01T22:35:44.950Z,10.32
2022-10-01T22:38:36.335Z,12.10
2022-10-01T22:41:23.918Z,16.08
2022-10-01T22:43:53.268Z,10.75
2022-10-01T22:46:24.588Z,13.43
2022-10-01T22:49:16.117Z,12.02
2022-10-01T22:51:48.542Z,11.15
2022-10-01T22:54:47.229Z,11.02
2022-10-01T22:57:22.210Z,11.75
2022-10-01T22:59:57.865Z,11.18
2022-10-01T23:02:36.966Z,11.93
2022-10-01T23:05:18.511Z,13.05
2022-10-01T23:07:54.396Z,13.18
2022-10-01T23:10:42.828Z,13.63
2022-10-01T23:13:28.438Z,11.68
2022-10-01T23:16:07.014Z,13.80
2022-10-01T23:18:45.387Z,11.55
2022-10-01T23:21:27.539Z,12.40
2022-10-01T23:24:06.328Z,12.80
2022-10-01T23:26:42.269Z,13.45
2022-10-01T23:29:19.103Z,12.20
2022-10-01T23:32:08.500Z,12.13
2022-10-01T23:35:00.751Z,12.10
2022-10-01T23:37:44.601Z,12.13
2022-10-01T23:40:30.370Z,12.82
2022-10-01T23:43:01.906Z,13.15
2022-10-01T23:45:52.048Z,13.15
2022-10-01T23:48:59.211Z,13.93
2022-10-01T23:51:31.387Z,13.80
2022-10-01T23:54:06.385Z,13.98
2022-10-01T23:56:51.644Z,13.23
2022-10-01T23:59:33.054Z,13.95
